Main page
METAR-TAF:

METAR-TAF

Airports :

San Sebastián Airport

San Sebastián, Spain

latitude: 43-21N, longitude: 001-48W, elevation: 5 m

Current weather observation

The report was made 35 minutes ago, at 09:30 UTC
Wind 5 kt from the North/Northeast, varying between Northwest and East/Northeast
Temperature 21°C
Humidity 73%
Pressure 1022 hPa
Visibility 10 km or more
no clouds below 1500 m and no cumulonimbus

METAR: LESO 230930Z 02005KT 320V070 CAVOK 21/16 Q1022

Time: 12:05 (10:05 UTC)

Forecast

The report was made 5 hours and 5 minutes ago, at 05:00 UTC
Forecast valid from 23 at 06 UTC to 24 at 06 UTC
Wind 5 kt from the South
Visibility 10 km or more
Scattered clouds at a height of 2500 ft
Temporary
from 23 at 12 UTC to 23 at 18 UTC
Wind 10 kt from the North

TAF: LESO 230500Z 2306/2406 18005KT 9999 SCT025 TX23/2315Z TN15/2306Z TEMPO 2312/2318 01010KT

Weather observations and forecasts of more than 4000 airports (METAR and TAF reports).

The available stations are represented by yellow and red dots on the map.

Hover mouse over dot to see the name of the station.

Then click to see weather observations and forecasts.

To change the map : click on the green buttons with a black cross to zoom in, on the green button with a dash to zoom out, or on the green arrows for adjacent maps.


METAR-TAF: